Private Wetterstation Sandau
Wetterdaten: Mittwoch, 23.01.2013
Datum Zeit Temp. A. Feuchte A. Luftdruck Regen Wind Richtung Richtung Taupunkt Windchill
23.01.2013 00:01 -5,8 C 85 % 1011,6 hPa 0,0 l/m 1,8 km/h (1 Bft) N-NO 22 -7,9 C -5,8 C
23.01.2013 00:06 -5,8 C 85 % 1011,5 hPa 0,0 l/m 0,0 km/h (0 Bft) N-NO 22 -7,9 C -5,8 C
23.01.2013 00:11 -5,8 C 85 % 1011,4 hPa 0,0 l/m 0,0 km/h (0 Bft) N-NO 22 -7,9 C -5,8 C
23.01.2013 00:16 -5,8 C 85 % 1011,4 hPa 0,0 l/m 0,0 km/h (0 Bft) N-NO 22 -7,9 C -5,8 C
23.01.2013 00:21 -5,8 C 85 % 1011,5 hPa 0,0 l/m 1,4 km/h (1 Bft) N-NO 22 -7,9 C -5,8 C
23.01.2013 00:26 -5,7 C 85 % 1011,6 hPa 0,0 l/m 1,8 km/h (1 Bft) N-NO 22 -7,8 C -5,7 C
23.01.2013 00:31 -5,7 C 85 % 1011,4 hPa 0,0 l/m 2,9 km/h (1 Bft) N-NO 22 -7,8 C -5,7 C
23.01.2013 00:36 -5,8 C 85 % 1011,5 hPa 0,0 l/m 0,0 km/h (0 Bft) N-NO 22 -7,9 C -5,8 C
23.01.2013 00:41 -5,8 C 85 % 1011,4 hPa 0,0 l/m 3,6 km/h (1 Bft) N 360 -7,9 C -5,8 C
23.01.2013 00:46 -5,8 C 85 % 1011,4 hPa 0,0 l/m 2,9 km/h (1 Bft) N 360 -7,9 C -5,8 C
23.01.2013 00:51 -5,9 C 86 % 1011,3 hPa 0,0 l/m 2,9 km/h (1 Bft) N 360 -7,9 C -5,9 C
23.01.2013 00:56 -5,9 C 86 % 1011,3 hPa 0,0 l/m 2,2 km/h (1 Bft) N-NO 22 -7,9 C -5,9 C
23.01.2013 01:01 -5,8 C 86 % 1011,4 hPa 0,0 l/m 2,9 km/h (1 Bft) N-NO 22 -7,8 C -5,8 C
23.01.2013 01:06 -5,8 C 86 % 1011,4 hPa 0,0 l/m 0,0 km/h (0 Bft) N-NO 22 -7,8 C -5,8 C
23.01.2013 01:11 -5,8 C 86 % 1011,3 hPa 0,0 l/m 2,9 km/h (1 Bft) N-NO 22 -7,8 C -5,8 C
23.01.2013 01:16 -5,8 C 86 % 1011,4 hPa 0,0 l/m 1,1 km/h (1 Bft) N-NO 22 -7,8 C -5,8 C
23.01.2013 01:21 -5,8 C 86 % 1011,3 hPa 0,0 l/m 2,9 km/h (1 Bft) N 360 -7,8 C -5,8 C
23.01.2013 01:26 -5,8 C 86 % 1011,2 hPa 0,0 l/m 3,2 km/h (1 Bft) N 360 -7,8 C -5,8 C
23.01.2013 01:31 -5,7 C 86 % 1011,2 hPa 0,0 l/m 0,0 km/h (0 Bft) O-NO 67 -7,7 C -5,7 C
23.01.2013 01:36 -5,7 C 86 % 1011,2 hPa 0,0 l/m 2,9 km/h (1 Bft) N-NO 22 -7,7 C -5,7 C
23.01.2013 01:41 -5,7 C 86 % 1011,3 hPa 0,0 l/m 1,4 km/h (1 Bft) N-NO 22 -7,7 C -5,7 C
23.01.2013 01:46 -5,6 C 86 % 1011,3 hPa 0,0 l/m 0,0 km/h (0 Bft) O-NO 67 -7,6 C -5,6 C
23.01.2013 01:51 -5,6 C 86 % 1011,4 hPa 0,0 l/m 0,0 km/h (0 Bft) NO 45 -7,6 C -5,6 C
23.01.2013 01:56 -5,6 C 86 % 1011,1 hPa 0,0 l/m 1,1 km/h (1 Bft) N-NO 22 -7,6 C -5,6 C
23.01.2013 02:01 -5,6 C 86 % 1011,2 hPa 0,0 l/m 2,5 km/h (1 Bft) N-NO 22 -7,6 C -5,6 C
23.01.2013 02:06 -5,6 C 85 % 1011,3 hPa 0,0 l/m 2,9 km/h (1 Bft) N 360 -7,7 C -5,6 C
23.01.2013 02:11 -5,6 C 85 % 1011,3 hPa 0,0 l/m 2,2 km/h (1 Bft) N 360 -7,7 C -5,6 C
23.01.2013 02:16 -5,6 C 85 % 1011,3 hPa 0,0 l/m 1,8 km/h (1 Bft) N 360 -7,7 C -5,6 C
23.01.2013 02:21 -5,6 C 85 % 1011,4 hPa 0,0 l/m 1,4 km/h (1 Bft) N-NO 22 -7,7 C -5,6 C
23.01.2013 02:26 -5,6 C 85 % 1011,3 hPa 0,0 l/m 3,2 km/h (1 Bft) N-NO 22 -7,7 C -5,6 C
23.01.2013 02:31 -5,6 C 86 % 1011,2 hPa 0,0 l/m 1,4 km/h (1 Bft) NO 45 -7,6 C -5,6 C
23.01.2013 02:36 -5,6 C 86 % 1011,3 hPa 0,0 l/m 1,1 km/h (1 Bft) NO 45 -7,6 C -5,6 C
23.01.2013 02:41 -5,6 C 86 % 1011,3 hPa 0,0 l/m 0,0 km/h (0 Bft) NO 45 -7,6 C -5,6 C
23.01.2013 02:46 -5,5 C 86 % 1011,1 hPa 0,0 l/m 2,2 km/h (1 Bft) O-NO 67 -7,5 C -5,5 C
23.01.2013 02:51 -5,5 C 86 % 1011,1 hPa 0,0 l/m 1,4 km/h (1 Bft) NO 45 -7,5 C -5,5 C
23.01.2013 02:56 -5,5 C 86 % 1011,2 hPa 0,0 l/m 1,8 km/h (1 Bft) O-NO 67 -7,5 C -5,5 C
23.01.2013 03:01 -5,5 C 86 % 1011,3 hPa 0,0 l/m 1,4 km/h (1 Bft) N-NO 22 -7,5 C -5,5 C
23.01.2013 03:06 -5,5 C 86 % 1011,2 hPa 0,0 l/m 1,4 km/h (1 Bft) NO 45 -7,5 C -5,5 C
23.01.2013 03:11 -5,5 C 86 % 1011,3 hPa 0,0 l/m 0,0 km/h (0 Bft) N-NO 22 -7,5 C -5,5 C
23.01.2013 03:16 -5,4 C 86 % 1011,3 hPa 0,0 l/m 1,1 km/h (1 Bft) NO 45 -7,4 C -5,4 C
23.01.2013 03:21 -5,4 C 86 % 1011,2 hPa 0,0 l/m 2,2 km/h (1 Bft) NO 45 -7,4 C -5,4 C
23.01.2013 03:26 -5,4 C 86 % 1011,2 hPa 0,0 l/m 0,0 km/h (0 Bft) NO 45 -7,4 C -5,4 C
23.01.2013 03:31 -5,3 C 86 % 1011,2 hPa 0,0 l/m 0,0 km/h (0 Bft) NO 45 -7,3 C -5,3 C
23.01.2013 03:36 -5,3 C 86 % 1011,2 hPa 0,0 l/m 0,0 km/h (0 Bft) NO 45 -7,3 C -5,3 C
23.01.2013 03:41 -5,4 C 86 % 1011,2 hPa 0,0 l/m 1,4 km/h (1 Bft) NO 45 -7,4 C -5,4 C
23.01.2013 03:46 -5,4 C 86 % 1011,3 hPa 0,0 l/m 1,1 km/h (1 Bft) NO 45 -7,4 C -5,4 C
23.01.2013 03:51 -5,4 C 86 % 1011,3 hPa 0,0 l/m 0,0 km/h (0 Bft) O-NO 67 -7,4 C -5,4 C
23.01.2013 03:56 -5,4 C 86 % 1011,2 hPa 0,0 l/m 0,0 km/h (0 Bft) NO 45 -7,4 C -5,4 C
23.01.2013 04:01 -5,3 C 86 % 1011,3 hPa 0,0 l/m 1,4 km/h (1 Bft) NO 45 -7,3 C -5,3 C
23.01.2013 04:06 -5,3 C 86 % 1011,0 hPa 0,0 l/m 0,0 km/h (0 Bft) NO 45 -7,3 C -5,3 C
23.01.2013 04:11 -5,3 C 86 % 1011,2 hPa 0,0 l/m 0,0 km/h (0 Bft) NO 45 -7,3 C -5,3 C
23.01.2013 04:16 -5,4 C 86 % 1011,2 hPa 0,0 l/m 0,0 km/h (0 Bft) NO 45 -7,4 C -5,4 C
23.01.2013 04:21 -5,4 C 86 % 1011,3 hPa 0,0 l/m 0,0 km/h (0 Bft) NO 45 -7,4 C -5,4 C
23.01.2013 04:26 -5,4 C 86 % 1011,1 hPa 0,0 l/m 0,0 km/h (0 Bft) NO 45 -7,4 C -5,4 C
23.01.2013 04:31 -5,4 C 86 % 1011,2 hPa 0,0 l/m 0,0 km/h (0 Bft) NO 45 -7,4 C -5,4 C
23.01.2013 04:36 -5,4 C 86 % 1011,0 hPa 0,0 l/m 0,0 km/h (0 Bft) N-NO 22 -7,4 C -5,4 C
23.01.2013 04:41 -5,4 C 86 % 1011,1 hPa 0,0 l/m 0,0 km/h (0 Bft) NO 45 -7,4 C -5,4 C
23.01.2013 04:46 -5,4 C 86 % 1011,0 hPa 0,0 l/m 0,0 km/h (0 Bft) NO 45 -7,4 C -5,4 C
23.01.2013 04:51 -5,4 C 86 % 1011,0 hPa 0,0 l/m 0,0 km/h (0 Bft) N-NO 22 -7,4 C -5,4 C
23.01.2013 04:56 -5,4 C 86 % 1011,1 hPa 0,0 l/m 0,0 km/h (0 Bft) N-NO 22 -7,4 C -5,4 C
23.01.2013 05:01 -5,3 C 86 % 1011,1 hPa 0,0 l/m 0,0 km/h (0 Bft) N-NO 22 -7,3 C -5,3 C
23.01.2013 05:06 -5,4 C 86 % 1011,0 hPa 0,0 l/m 0,0 km/h (0 Bft) NO 45 -7,4 C -5,4 C
23.01.2013 05:11 -5,3 C 86 % 1011,1 hPa 0,0 l/m 0,0 km/h (0 Bft) NO 45 -7,3 C -5,3 C
23.01.2013 05:16 -5,3 C 86 % 1010,9 hPa 0,0 l/m 1,1 km/h (1 Bft) N-NO 22 -7,3 C -5,3 C
23.01.2013 05:21 -5,2 C 86 % 1011,0 hPa 0,0 l/m 1,1 km/h (1 Bft) NO 45 -7,2 C -5,2 C
23.01.2013 05:26 -5,2 C 86 % 1011,1 hPa 0,0 l/m 0,0 km/h (0 Bft) N-NO 22 -7,2 C -5,2 C
23.01.2013 05:31 -5,2 C 86 % 1011,0 hPa 0,0 l/m 0,0 km/h (0 Bft) N-NO 22 -7,2 C -5,2 C
23.01.2013 05:36 -5,2 C 86 % 1010,9 hPa 0,0 l/m 0,0 km/h (0 Bft) NO 45 -7,2 C -5,2 C
23.01.2013 05:41 -5,1 C 86 % 1010,8 hPa 0,0 l/m 2,9 km/h (1 Bft) NO 45 -7,1 C -5,1 C
23.01.2013 05:46 -5,2 C 86 % 1010,7 hPa 0,0 l/m 2,5 km/h (1 Bft) NO 45 -7,2 C -5,2 C
23.01.2013 05:51 -5,2 C 86 % 1010,7 hPa 0,0 l/m 2,2 km/h (1 Bft) N-NO 22 -7,2 C -5,2 C
23.01.2013 05:56 -5,2 C 86 % 1010,9 hPa 0,0 l/m 0,0 km/h (0 Bft) N-NO 22 -7,2 C -5,2 C
23.01.2013 06:01 -5,2 C 86 % 1010,8 hPa 0,0 l/m 1,4 km/h (1 Bft) N-NO 22 -7,2 C -5,2 C
23.01.2013 06:06 -5,2 C 86 % 1010,8 hPa 0,0 l/m 0,0 km/h (0 Bft) NO 45 -7,2 C -5,2 C
23.01.2013 06:11 -5,3 C 86 % 1010,7 hPa 0,0 l/m 0,0 km/h (0 Bft) N-NO 22 -7,3 C -5,3 C
23.01.2013 06:16 -5,3 C 86 % 1010,8 hPa 0,0 l/m 0,0 km/h (0 Bft) N-NO 22 -7,3 C -5,3 C
23.01.2013 06:21 -5,2 C 86 % 1010,8 hPa 0,0 l/m 1,4 km/h (1 Bft) N-NO 22 -7,2 C -5,2 C
23.01.2013 06:26 -5,2 C 86 % 1010,8 hPa 0,0 l/m 0,0 km/h (0 Bft) NO 45 -7,2 C -5,2 C
23.01.2013 06:31 -5,2 C 86 % 1010,8 hPa 0,0 l/m 0,0 km/h (0 Bft) O-NO 67 -7,2 C -5,2 C
23.01.2013 06:36 -5,2 C 86 % 1010,9 hPa 0,0 l/m 0,0 km/h (0 Bft) N-NO 22 -7,2 C -5,2 C
23.01.2013 06:41 -5,2 C 86 % 1010,8 hPa 0,0 l/m 0,0 km/h (0 Bft) N-NO 22 -7,2 C -5,2 C
23.01.2013 06:46 -5,2 C 86 % 1010,8 hPa 0,0 l/m 0,0 km/h (0 Bft) N-NO 22 -7,2 C -5,2 C
23.01.2013 06:51 -5,3 C 86 % 1010,8 hPa 0,0 l/m 1,4 km/h (1 Bft) N-NO 22 -7,3 C -5,3 C
23.01.2013 06:56 -5,3 C 86 % 1011,0 hPa 0,0 l/m 0,0 km/h (0 Bft) N-NO 22 -7,3 C -5,3 C
23.01.2013 07:01 -5,3 C 86 % 1010,9 hPa 0,0 l/m 0,0 km/h (0 Bft) NO 45 -7,3 C -5,3 C
23.01.2013 07:06 -5,2 C 86 % 1010,9 hPa 0,0 l/m 0,0 km/h (0 Bft) NO 45 -7,2 C -5,2 C
23.01.2013 07:11 -5,3 C 86 % 1010,9 hPa 0,0 l/m 0,0 km/h (0 Bft) NO 45 -7,3 C -5,3 C
23.01.2013 07:16 -5,3 C 86 % 1011,0 hPa 0,0 l/m 1,1 km/h (1 Bft) NO 45 -7,3 C -5,3 C
23.01.2013 07:21 -5,2 C 86 % 1011,0 hPa 0,0 l/m 0,0 km/h (0 Bft) NO 45 -7,2 C -5,2 C
23.01.2013 07:26 -5,2 C 86 % 1010,9 hPa 0,0 l/m 1,1 km/h (1 Bft) N-NO 22 -7,2 C -5,2 C
23.01.2013 07:31 -5,2 C 86 % 1011,0 hPa 0,0 l/m 0,0 km/h (0 Bft) NO 45 -7,2 C -5,2 C
23.01.2013 07:36 -5,1 C 86 % 1011,0 hPa 0,0 l/m 0,0 km/h (0 Bft) O-NO 67 -7,1 C -5,1 C
23.01.2013 07:41 -5,1 C 86 % 1011,1 hPa 0,0 l/m 0,0 km/h (0 Bft) O-NO 67 -7,1 C -5,1 C
23.01.2013 07:46 -5,1 C 86 % 1011,1 hPa 0,0 l/m 0,0 km/h (0 Bft) O-NO 67 -7,1 C -5,1 C
23.01.2013 07:51 -5,1 C 86 % 1011,2 hPa 0,0 l/m 0,0 km/h (0 Bft) O-NO 67 -7,1 C -5,1 C
23.01.2013 07:56 -5,1 C 86 % 1011,3 hPa 0,0 l/m 0,0 km/h (0 Bft) NO 45 -7,1 C -5,1 C
23.01.2013 08:01 -5,1 C 86 % 1011,2 hPa 0,0 l/m 0,0 km/h (0 Bft) NO 45 -7,1 C -5,1 C
23.01.2013 08:06 -5,1 C 86 % 1011,4 hPa 0,0 l/m 0,0 km/h (0 Bft) NO 45 -7,1 C -5,1 C
23.01.2013 08:11 -5,1 C 86 % 1011,5 hPa 0,0 l/m 0,0 km/h (0 Bft) NO 45 -7,1 C -5,1 C
23.01.2013 08:16 -5,1 C 86 % 1011,5 hPa 0,0 l/m 0,0 km/h (0 Bft) NO 45 -7,1 C -5,1 C
23.01.2013 08:21 -5,1 C 86 % 1011,4 hPa 0,0 l/m 2,2 km/h (1 Bft) NO 45 -7,1 C -5,1 C
23.01.2013 08:26 -5,1 C 86 % 1011,4 hPa 0,0 l/m 0,0 km/h (0 Bft) NO 45 -7,1 C -5,1 C
23.01.2013 08:31 -5,1 C 86 % 1011,4 hPa 0,0 l/m 0,0 km/h (0 Bft) NO 45 -7,1 C -5,1 C
23.01.2013 08:36 -5,0 C 86 % 1011,2 hPa 0,0 l/m 0,0 km/h (0 Bft) O-NO 67 -7,0 C -5,0 C
23.01.2013 08:41 -5,0 C 86 % 1011,3 hPa 0,0 l/m 0,0 km/h (0 Bft) O-NO 67 -7,0 C -5,0 C
23.01.2013 08:46 -4,9 C 86 % 1011,3 hPa 0,0 l/m 0,0 km/h (0 Bft) O-NO 67 -6,9 C -4,9 C
23.01.2013 08:51 -4,9 C 86 % 1011,4 hPa 0,0 l/m 0,0 km/h (0 Bft) O-NO 67 -6,9 C -4,9 C
23.01.2013 08:56 -4,9 C 86 % 1011,3 hPa 0,0 l/m 0,0 km/h (0 Bft) O-NO 67 -6,9 C -4,9 C
23.01.2013 09:01 -4,9 C 86 % 1011,5 hPa 0,0 l/m 0,0 km/h (0 Bft) O-NO 67 -6,9 C -4,9 C
23.01.2013 09:06 -4,8 C 86 % 1011,3 hPa 0,0 l/m 2,2 km/h (1 Bft) O-NO 67 -6,8 C -4,8 C
23.01.2013 09:11 -4,8 C 86 % 1011,4 hPa 0,0 l/m 0,0 km/h (0 Bft) NO 45 -6,8 C -4,8 C
23.01.2013 09:16 -4,7 C 86 % 1011,4 hPa 0,0 l/m 0,0 km/h (0 Bft) NO 45 -6,7 C -4,7 C
23.01.2013 09:21 -4,7 C 85 % 1011,4 hPa 0,0 l/m 2,2 km/h (1 Bft) NO 45 -6,8 C -4,7 C
23.01.2013 09:26 -4,7 C 85 % 1011,4 hPa 0,0 l/m 1,4 km/h (1 Bft) NO 45 -6,8 C -4,7 C
23.01.2013 09:31 -4,7 C 85 % 1011,6 hPa 0,0 l/m 0,0 km/h (0 Bft) NO 45 -6,8 C -4,7 C
23.01.2013 09:36 -4,6 C 85 % 1011,6 hPa 0,0 l/m 0,0 km/h (0 Bft) NO 45 -6,7 C -4,6 C
23.01.2013 09:41 -4,6 C 85 % 1011,5 hPa 0,0 l/m 2,2 km/h (1 Bft) NO 45 -6,7 C -4,6 C
23.01.2013 09:46 -4,5 C 85 % 1011,5 hPa 0,0 l/m 2,5 km/h (1 Bft) NO 45 -6,6 C -4,5 C
23.01.2013 09:51 -4,5 C 85 % 1011,5 hPa 0,0 l/m 1,4 km/h (1 Bft) O-SO 112 -6,6 C -4,5 C
23.01.2013 09:56 -4,4 C 85 % 1011,5 hPa 0,0 l/m 3,2 km/h (1 Bft) O-SO 112 -6,5 C -4,4 C
23.01.2013 10:01 -4,5 C 85 % 1011,6 hPa 0,0 l/m 2,2 km/h (1 Bft) SO 135 -6,6 C -4,5 C
23.01.2013 10:06 -4,5 C 84 % 1011,6 hPa 0,0 l/m 0,0 km/h (0 Bft) SO 135 -6,8 C -4,5 C
23.01.2013 10:11 -4,4 C 84 % 1011,5 hPa 0,0 l/m 4,0 km/h (1 Bft) O-SO 112 -6,7 C -4,4 C
23.01.2013 10:16 -4,4 C 84 % 1011,5 hPa 0,0 l/m 2,9 km/h (1 Bft) O-SO 112 -6,7 C -4,4 C
23.01.2013 10:21 -4,4 C 84 % 1011,4 hPa 0,0 l/m 1,4 km/h (1 Bft) O-SO 112 -6,7 C -4,4 C
23.01.2013 10:26 -4,4 C 83 % 1011,5 hPa 0,0 l/m 4,0 km/h (1 Bft) O-SO 112 -6,8 C -4,4 C
23.01.2013 10:31 -4,3 C 83 % 1011,6 hPa 0,0 l/m 2,9 km/h (1 Bft) O-SO 112 -6,7 C -4,3 C
23.01.2013 10:36 -4,4 C 83 % 1011,5 hPa 0,0 l/m 0,0 km/h (0 Bft) O-SO 112 -6,8 C -4,4 C
23.01.2013 10:41 -4,2 C 83 % 1011,5 hPa 0,0 l/m 0,0 km/h (0 Bft) SO 135 -6,6 C -4,2 C
23.01.2013 10:46 -4,2 C 83 % 1011,6 hPa 0,0 l/m 1,8 km/h (1 Bft) SO 135 -6,6 C -4,2 C
23.01.2013 10:51 -4,2 C 82 % 1011,6 hPa 0,0 l/m 0,0 km/h (0 Bft) SO 135 -6,8 C -4,2 C
23.01.2013 10:56 -4,1 C 82 % 1011,6 hPa 0,0 l/m 0,0 km/h (0 Bft) O-SO 112 -6,7 C -4,1 C
23.01.2013 11:01 -4,1 C 82 % 1011,6 hPa 0,0 l/m 1,8 km/h (1 Bft) O-SO 112 -6,7 C -4,1 C
23.01.2013 11:06 -3,9 C 82 % 1011,6 hPa 0,0 l/m 0,0 km/h (0 Bft) SO 135 -6,5 C -3,9 C
23.01.2013 11:11 -3,9 C 81 % 1011,5 hPa 0,0 l/m 0,0 km/h (0 Bft) SO 135 -6,7 C -3,9 C
23.01.2013 11:16 -3,8 C 81 % 1011,5 hPa 0,0 l/m 0,0 km/h (0 Bft) SO 135 -6,6 C -3,8 C
23.01.2013 11:21 -3,7 C 81 % 1011,7 hPa 0,0 l/m 0,0 km/h (0 Bft) SO 135 -6,5 C -3,7 C
23.01.2013 11:26 -3,6 C 81 % 1011,6 hPa 0,0 l/m 0,0 km/h (0 Bft) SO 135 -6,4 C -3,6 C
23.01.2013 11:31 -3,7 C 81 % 1011,6 hPa 0,0 l/m 0,0 km/h (0 Bft) SO 135 -6,5 C -3,7 C
23.01.2013 11:36 -3,6 C 81 % 1011,6 hPa 0,0 l/m 1,4 km/h (1 Bft) O-SO 112 -6,4 C -3,6 C
23.01.2013 11:41 -3,6 C 80 % 1011,7 hPa 0,0 l/m 0,0 km/h (0 Bft) O-SO 112 -6,5 C -3,6 C
23.01.2013 11:46 -3,6 C 80 % 1011,7 hPa 0,0 l/m 0,0 km/h (0 Bft) O-SO 112 -6,5 C -3,6 C
23.01.2013 11:51 -3,6 C 80 % 1011,7 hPa 0,0 l/m 0,0 km/h (0 Bft) O-SO 112 -6,5 C -3,6 C
23.01.2013 11:56 -3,6 C 80 % 1011,6 hPa 0,0 l/m 0,0 km/h (0 Bft) SO 135 -6,5 C -3,6 C
23.01.2013 12:01 -3,6 C 80 % 1011,6 hPa 0,0 l/m 0,0 km/h (0 Bft) SO 135 -6,5 C -3,6 C
23.01.2013 12:06 -3,6 C 80 % 1011,5 hPa 0,0 l/m 1,8 km/h (1 Bft) SO 135 -6,5 C -3,6 C
23.01.2013 12:11 -3,6 C 80 % 1011,6 hPa 0,0 l/m 1,4 km/h (1 Bft) O-SO 112 -6,5 C -3,6 C
23.01.2013 12:16 -3,5 C 80 % 1011,6 hPa 0,0 l/m 2,9 km/h (1 Bft) O-SO 112 -6,4 C -3,5 C
23.01.2013 12:21 -3,6 C 79 % 1011,5 hPa 0,0 l/m 1,1 km/h (1 Bft) SO 135 -6,7 C -3,6 C
23.01.2013 12:26 -3,6 C 79 % 1011,5 hPa 0,0 l/m 1,8 km/h (1 Bft) O-SO 112 -6,7 C -3,6 C
23.01.2013 12:31 -3,6 C 79 % 1011,6 hPa 0,0 l/m 0,0 km/h (0 Bft) O-SO 112 -6,7 C -3,6 C
23.01.2013 12:36 -3,7 C 79 % 1011,6 hPa 0,0 l/m 1,1 km/h (1 Bft) O-SO 112 -6,8 C -3,7 C
23.01.2013 12:41 -3,7 C 79 % 1011,4 hPa 0,0 l/m 0,0 km/h (0 Bft) O-SO 112 -6,8 C -3,7 C
23.01.2013 12:46 -3,8 C 79 % 1011,6 hPa 0,0 l/m 0,0 km/h (0 Bft) O-SO 112 -6,9 C -3,8 C
23.01.2013 12:51 -3,8 C 80 % 1011,5 hPa 0,0 l/m 0,0 km/h (0 Bft) O-SO 112 -6,7 C -3,8 C
23.01.2013 12:56 -3,7 C 79 % 1011,4 hPa 0,0 l/m 0,0 km/h (0 Bft) O-SO 112 -6,8 C -3,7 C
23.01.2013 13:01 -3,6 C 79 % 1011,4 hPa 0,0 l/m 0,0 km/h (0 Bft) O-SO 112 -6,7 C -3,6 C
23.01.2013 13:06 -3,6 C 79 % 1011,3 hPa 0,0 l/m 0,0 km/h (0 Bft) O-SO 112 -6,7 C -3,6 C
23.01.2013 13:11 -3,6 C 79 % 1011,4 hPa 0,0 l/m 0,0 km/h (0 Bft) O-SO 112 -6,7 C -3,6 C
23.01.2013 13:16 -3,4 C 79 % 1011,5 hPa 0,0 l/m 0,0 km/h (0 Bft) O-SO 112 -6,5 C -3,4 C
23.01.2013 13:21 -3,4 C 79 % 1011,5 hPa 0,0 l/m 0,0 km/h (0 Bft) O-SO 112 -6,5 C -3,4 C
23.01.2013 13:26 -3,4 C 79 % 1011,3 hPa 0,0 l/m 2,2 km/h (1 Bft) O-SO 112 -6,5 C -3,4 C
23.01.2013 13:31 -3,4 C 79 % 1011,4 hPa 0,0 l/m 0,0 km/h (0 Bft) O-SO 112 -6,5 C -3,4 C
23.01.2013 13:36 -3,5 C 79 % 1011,4 hPa 0,0 l/m 0,0 km/h (0 Bft) O-SO 112 -6,6 C -3,5 C
23.01.2013 13:41 -3,5 C 79 % 1011,3 hPa 0,0 l/m 0,0 km/h (0 Bft) O-SO 112 -6,6 C -3,5 C
23.01.2013 13:46 -3,5 C 79 % 1011,3 hPa 0,0 l/m 0,0 km/h (0 Bft) O-SO 112 -6,6 C -3,5 C
23.01.2013 13:51 -3,5 C 79 % 1011,4 hPa 0,0 l/m 0,0 km/h (0 Bft) SO 135 -6,6 C -3,5 C
23.01.2013 13:56 -3,5 C 79 % 1011,5 hPa 0,0 l/m 0,0 km/h (0 Bft) SO 135 -6,6 C -3,5 C
23.01.2013 14:01 -3,5 C 79 % 1011,4 hPa 0,0 l/m 0,0 km/h (0 Bft) SO 135 -6,6 C -3,5 C
23.01.2013 14:06 -3,6 C 79 % 1011,5 hPa 0,0 l/m 0,0 km/h (0 Bft) O-SO 112 -6,7 C -3,6 C
23.01.2013 14:11 -3,6 C 79 % 1011,4 hPa 0,0 l/m 1,4 km/h (1 Bft) O-SO 112 -6,7 C -3,6 C
23.01.2013 14:16 -3,7 C 79 % 1011,4 hPa 0,0 l/m 0,0 km/h (0 Bft) O-SO 112 -6,8 C -3,7 C
23.01.2013 14:21 -3,7 C 80 % 1011,6 hPa 0,0 l/m 0,0 km/h (0 Bft) SO 135 -6,6 C -3,7 C
23.01.2013 14:26 -3,7 C 80 % 1011,5 hPa 0,0 l/m 0,0 km/h (0 Bft) SO 135 -6,6 C -3,7 C
23.01.2013 14:31 -3,6 C 80 % 1011,4 hPa 0,0 l/m 0,0 km/h (0 Bft) SO 135 -6,5 C -3,6 C
23.01.2013 14:36 -3,7 C 80 % 1011,6 hPa 0,0 l/m 0,0 km/h (0 Bft) SO 135 -6,6 C -3,7 C
23.01.2013 14:41 -3,7 C 80 % 1011,5 hPa 0,0 l/m 0,0 km/h (0 Bft) SO 135 -6,6 C -3,7 C
23.01.2013 14:46 -3,7 C 80 % 1011,5 hPa 0,0 l/m 0,0 km/h (0 Bft) SO 135 -6,6 C -3,7 C
23.01.2013 14:51 -3,8 C 80 % 1011,5 hPa 0,0 l/m 0,0 km/h (0 Bft) SO 135 -6,7 C -3,8 C
23.01.2013 14:56 -3,8 C 80 % 1011,4 hPa 0,0 l/m 2,2 km/h (1 Bft) O-SO 112 -6,7 C -3,8 C
23.01.2013 15:01 -3,9 C 80 % 1011,4 hPa 0,0 l/m 0,0 km/h (0 Bft) O-SO 112 -6,8 C -3,9 C
23.01.2013 15:06 -3,9 C 81 % 1011,5 hPa 0,0 l/m 0,0 km/h (0 Bft) O-SO 112 -6,7 C -3,9 C
23.01.2013 15:11 -3,9 C 81 % 1011,7 hPa 0,0 l/m 1,8 km/h (1 Bft) SO 135 -6,7 C -3,9 C
23.01.2013 15:16 -3,9 C 81 % 1011,7 hPa 0,0 l/m 0,0 km/h (0 Bft) SO 135 -6,7 C -3,9 C
23.01.2013 15:21 -3,9 C 81 % 1011,7 hPa 0,0 l/m 0,0 km/h (0 Bft) SO 135 -6,7 C -3,9 C
23.01.2013 15:26 -4,1 C 81 % 1011,6 hPa 0,0 l/m 1,1 km/h (1 Bft) SO 135 -6,9 C -4,1 C
23.01.2013 15:31 -4,1 C 81 % 1011,4 hPa 0,0 l/m 2,2 km/h (1 Bft) S-SO 157 -6,9 C -4,1 C
23.01.2013 15:36 -4,1 C 81 % 1011,6 hPa 0,0 l/m 0,0 km/h (0 Bft) S-SO 157 -6,9 C -4,1 C
23.01.2013 15:41 -4,1 C 81 % 1011,6 hPa 0,0 l/m 0,0 km/h (0 Bft) SO 135 -6,9 C -4,1 C
23.01.2013 15:46 -4,1 C 81 % 1011,6 hPa 0,0 l/m 1,4 km/h (1 Bft) SO 135 -6,9 C -4,1 C
23.01.2013 15:51 -4,1 C 81 % 1011,7 hPa 0,0 l/m 1,1 km/h (1 Bft) SO 135 -6,9 C -4,1 C
23.01.2013 15:56 -4,2 C 82 % 1011,8 hPa 0,0 l/m 0,0 km/h (0 Bft) SO 135 -6,8 C -4,2 C
23.01.2013 16:01 -4,2 C 82 % 1011,7 hPa 0,0 l/m 1,1 km/h (1 Bft) SO 135 -6,8 C -4,2 C
23.01.2013 16:06 -4,2 C 82 % 1011,8 hPa 0,0 l/m 0,0 km/h (0 Bft) SO 135 -6,8 C -4,2 C
23.01.2013 16:11 -4,2 C 82 % 1011,7 hPa 0,0 l/m 1,4 km/h (1 Bft) O-SO 112 -6,8 C -4,2 C
23.01.2013 16:16 -4,2 C 82 % 1011,5 hPa 0,0 l/m 2,2 km/h (1 Bft) SO 135 -6,8 C -4,2 C
23.01.2013 16:21 -4,3 C 82 % 1011,6 hPa 0,0 l/m 0,0 km/h (0 Bft) SO 135 -6,9 C -4,3 C
23.01.2013 16:26 -4,4 C 82 % 1011,5 hPa 0,0 l/m 1,1 km/h (1 Bft) SO 135 -7,0 C -4,4 C
23.01.2013 16:31 -4,4 C 82 % 1011,5 hPa 0,0 l/m 2,5 km/h (1 Bft) O-SO 112 -7,0 C -4,4 C
23.01.2013 16:36 -4,4 C 82 % 1011,7 hPa 0,0 l/m 2,2 km/h (1 Bft) O-SO 112 -7,0 C -4,4 C
23.01.2013 16:41 -4,5 C 83 % 1011,7 hPa 0,0 l/m 1,4 km/h (1 Bft) O-SO 112 -6,9 C -4,5 C
23.01.2013 16:46 -4,5 C 83 % 1011,7 hPa 0,0 l/m 1,8 km/h (1 Bft) SO 135 -6,9 C -4,5 C
23.01.2013 16:51 -4,5 C 83 % 1011,7 hPa 0,0 l/m 0,0 km/h (0 Bft) SO 135 -6,9 C -4,5 C
23.01.2013 16:56 -4,5 C 83 % 1011,7 hPa 0,0 l/m 0,0 km/h (0 Bft) SO 135 -6,9 C -4,5 C
23.01.2013 17:01 -4,5 C 83 % 1011,7 hPa 0,0 l/m 0,0 km/h (0 Bft) SO 135 -6,9 C -4,5 C
23.01.2013 17:06 -4,5 C 83 % 1011,8 hPa 0,0 l/m 1,4 km/h (1 Bft) SO 135 -6,9 C -4,5 C
23.01.2013 17:11 -4,5 C 83 % 1011,8 hPa 0,0 l/m 0,0 km/h (0 Bft) SO 135 -6,9 C -4,5 C
23.01.2013 17:16 -4,5 C 83 % 1011,9 hPa 0,0 l/m 0,0 km/h (0 Bft) SO 135 -6,9 C -4,5 C
23.01.2013 17:21 -4,5 C 83 % 1011,9 hPa 0,0 l/m 0,0 km/h (0 Bft) SO 135 -6,9 C -4,5 C
23.01.2013 17:26 -4,5 C 83 % 1011,8 hPa 0,0 l/m 0,0 km/h (0 Bft) S-SO 157 -6,9 C -4,5 C
23.01.2013 17:31 -4,5 C 83 % 1011,8 hPa 0,0 l/m 1,4 km/h (1 Bft) S-SO 157 -6,9 C -4,5 C
23.01.2013 17:36 -4,5 C 83 % 1011,8 hPa 0,0 l/m 0,0 km/h (0 Bft) S-SO 157 -6,9 C -4,5 C
23.01.2013 17:41 -4,5 C 83 % 1011,7 hPa 0,0 l/m 0,0 km/h (0 Bft) S-SO 157 -6,9 C -4,5 C
23.01.2013 17:46 -4,5 C 83 % 1011,7 hPa 0,0 l/m 0,0 km/h (0 Bft) S-SO 157 -6,9 C -4,5 C
23.01.2013 17:51 -4,5 C 83 % 1011,8 hPa 0,0 l/m 0,0 km/h (0 Bft) S-SO 157 -6,9 C -4,5 C
23.01.2013 17:56 -4,5 C 83 % 1011,8 hPa 0,0 l/m 1,8 km/h (1 Bft) S-SO 157 -6,9 C -4,5 C
23.01.2013 18:01 -4,5 C 83 % 1011,9 hPa 0,0 l/m 1,1 km/h (1 Bft) S-SO 157 -6,9 C -4,5 C
23.01.2013 18:06 -4,5 C 84 % 1011,9 hPa 0,0 l/m 0,0 km/h (0 Bft) S-SO 157 -6,8 C -4,5 C
23.01.2013 18:11 -4,5 C 84 % 1011,9 hPa 0,0 l/m 0,0 km/h (0 Bft) S-SO 157 -6,8 C -4,5 C
23.01.2013 18:16 -4,5 C 84 % 1011,9 hPa 0,0 l/m 1,4 km/h (1 Bft) S-SO 157 -6,8 C -4,5 C
23.01.2013 18:21 -4,5 C 84 % 1011,7 hPa 0,0 l/m 0,0 km/h (0 Bft) S-SO 157 -6,8 C -4,5 C
23.01.2013 18:26 -4,5 C 84 % 1011,7 hPa 0,0 l/m 1,1 km/h (1 Bft) S-SO 157 -6,8 C -4,5 C
23.01.2013 18:31 -4,5 C 84 % 1011,8 hPa 0,0 l/m 1,1 km/h (1 Bft) S-SO 157 -6,8 C -4,5 C
23.01.2013 18:36 -4,5 C 84 % 1011,8 hPa 0,0 l/m 1,4 km/h (1 Bft) S-SO 157 -6,8 C -4,5 C
23.01.2013 18:41 -4,5 C 84 % 1011,7 hPa 0,0 l/m 0,0 km/h (0 Bft) S-SO 157 -6,8 C -4,5 C
23.01.2013 18:46 -4,5 C 84 % 1011,8 hPa 0,0 l/m 0,0 km/h (0 Bft) S-SO 157 -6,8 C -4,5 C
23.01.2013 18:51 -4,5 C 84 % 1011,8 hPa 0,0 l/m 0,0 km/h (0 Bft) S-SO 157 -6,8 C -4,5 C
23.01.2013 18:56 -4,5 C 84 % 1011,8 hPa 0,0 l/m 0,0 km/h (0 Bft) S-SO 157 -6,8 C -4,5 C
23.01.2013 19:01 -4,4 C 84 % 1011,8 hPa 0,0 l/m 0,0 km/h (0 Bft) S-SO 157 -6,7 C -4,4 C
23.01.2013 19:06 -4,4 C 84 % 1011,8 hPa 0,0 l/m 0,0 km/h (0 Bft) S-SO 157 -6,7 C -4,4 C
23.01.2013 19:11 -4,4 C 84 % 1011,8 hPa 0,0 l/m 0,0 km/h (0 Bft) S-SO 157 -6,7 C -4,4 C
23.01.2013 19:16 -4,4 C 84 % 1011,8 hPa 0,0 l/m 1,4 km/h (1 Bft) S-SO 157 -6,7 C -4,4 C
23.01.2013 19:21 -4,4 C 84 % 1011,8 hPa 0,0 l/m 0,0 km/h (0 Bft) S-SO 157 -6,7 C -4,4 C
23.01.2013 19:26 -4,4 C 84 % 1011,7 hPa 0,0 l/m 0,0 km/h (0 Bft) S-SO 157 -6,7 C -4,4 C
23.01.2013 19:31 -4,4 C 84 % 1011,7 hPa 0,0 l/m 1,1 km/h (1 Bft) S-SO 157 -6,7 C -4,4 C
23.01.2013 19:36 -4,4 C 84 % 1011,7 hPa 0,0 l/m 0,0 km/h (0 Bft) S-SO 157 -6,7 C -4,4 C
23.01.2013 19:41 -4,4 C 84 % 1011,7 hPa 0,0 l/m 0,0 km/h (0 Bft) S-SO 157 -6,7 C -4,4 C
23.01.2013 19:46 -4,4 C 84 % 1011,6 hPa 0,0 l/m 0,0 km/h (0 Bft) S-SO 157 -6,7 C -4,4 C
23.01.2013 19:51 -4,4 C 84 % 1011,6 hPa 0,0 l/m 0,0 km/h (0 Bft) S-SO 157 -6,7 C -4,4 C
23.01.2013 19:56 -4,4 C 85 % 1011,7 hPa 0,0 l/m 0,0 km/h (0 Bft) S-SO 157 -6,5 C -4,4 C
23.01.2013 20:01 -4,4 C 85 % 1011,4 hPa 0,0 l/m 1,4 km/h (1 Bft) S-SO 157 -6,5 C -4,4 C
23.01.2013 20:06 -4,4 C 85 % 1011,4 hPa 0,0 l/m 1,4 km/h (1 Bft) S-SO 157 -6,5 C -4,4 C
23.01.2013 20:11 -4,4 C 85 % 1011,4 hPa 0,0 l/m 1,4 km/h (1 Bft) S-SO 157 -6,5 C -4,4 C
23.01.2013 20:16 -4,4 C 85 % 1011,7 hPa 0,0 l/m 1,4 km/h (1 Bft) S-SO 157 -6,5 C -4,4 C
23.01.2013 20:21 -4,4 C 85 % 1011,7 hPa 0,0 l/m 0,0 km/h (0 Bft) S-SO 157 -6,5 C -4,4 C
23.01.2013 20:26 -4,4 C 85 % 1011,7 hPa 0,0 l/m 0,0 km/h (0 Bft) S-SO 157 -6,5 C -4,4 C
23.01.2013 20:31 -4,4 C 85 % 1011,6 hPa 0,0 l/m 0,0 km/h (0 Bft) S-SO 157 -6,5 C -4,4 C
23.01.2013 20:36 -4,4 C 85 % 1011,7 hPa 0,0 l/m 1,1 km/h (1 Bft) S-SO 157 -6,5 C -4,4 C
23.01.2013 20:41 -4,4 C 85 % 1011,7 hPa 0,0 l/m 1,8 km/h (1 Bft) W-SW 247 -6,5 C -4,4 C
23.01.2013 20:46 -4,4 C 85 % 1011,7 hPa 0,0 l/m 1,1 km/h (1 Bft) W-SW 247 -6,5 C -4,4 C
23.01.2013 20:51 -4,4 C 85 % 1011,7 hPa 0,0 l/m 0,0 km/h (0 Bft) SW 225 -6,5 C -4,4 C
23.01.2013 20:56 -4,4 C 85 % 1011,8 hPa 0,0 l/m 0,0 km/h (0 Bft) SW 225 -6,5 C -4,4 C
23.01.2013 21:01 -4,4 C 85 % 1011,7 hPa 0,0 l/m 2,2 km/h (1 Bft) SW 225 -6,5 C -4,4 C
23.01.2013 21:06 -4,4 C 85 % 1011,7 hPa 0,0 l/m 2,5 km/h (1 Bft) S-SW 202 -6,5 C -4,4 C
23.01.2013 21:11 -4,4 C 85 % 1011,7 hPa 0,0 l/m 2,2 km/h (1 Bft) S-SW 202 -6,5 C -4,4 C
23.01.2013 21:16 -4,4 C 85 % 1011,9 hPa 0,0 l/m 1,1 km/h (1 Bft) W-SW 247 -6,5 C -4,4 C
23.01.2013 21:21 -4,4 C 85 % 1011,8 hPa 0,0 l/m 2,9 km/h (1 Bft) W-SW 247 -6,5 C -4,4 C
23.01.2013 21:26 -4,4 C 85 % 1012,0 hPa 0,0 l/m 1,8 km/h (1 Bft) W 270 -6,5 C -4,4 C
23.01.2013 21:31 -4,4 C 85 % 1011,9 hPa 0,0 l/m 0,0 km/h (0 Bft) SW 225 -6,5 C -4,4 C
23.01.2013 21:36 -4,4 C 85 % 1012,0 hPa 0,0 l/m 4,0 km/h (1 Bft) SW 225 -6,5 C -4,4 C
23.01.2013 21:41 -4,4 C 85 % 1011,9 hPa 0,0 l/m 0,0 km/h (0 Bft) SW 225 -6,5 C -4,4 C
23.01.2013 21:46 -4,4 C 85 % 1012,0 hPa 0,0 l/m 3,2 km/h (1 Bft) S-SW 202 -6,5 C -4,4 C
23.01.2013 21:51 -4,4 C 85 % 1012,0 hPa 0,0 l/m 4,7 km/h (1 Bft) SW 225 -6,5 C -6,4 C
23.01.2013 21:56 -4,4 C 85 % 1012,0 hPa 0,0 l/m 4,7 km/h (1 Bft) SW 225 -6,5 C -6,4 C
23.01.2013 22:01 -4,4 C 85 % 1011,8 hPa 0,0 l/m 2,2 km/h (1 Bft) SW 225 -6,5 C -4,4 C
23.01.2013 22:06 -4,4 C 85 % 1012,0 hPa 0,0 l/m 2,2 km/h (1 Bft) SW 225 -6,5 C -4,4 C
23.01.2013 22:11 -4,4 C 85 % 1012,0 hPa 0,0 l/m 2,2 km/h (1 Bft) SW 225 -6,5 C -4,4 C
23.01.2013 22:16 -4,4 C 85 % 1012,1 hPa 0,0 l/m 2,9 km/h (1 Bft) S-SW 202 -6,5 C -4,4 C
23.01.2013 22:21 -4,4 C 85 % 1012,0 hPa 0,0 l/m 1,4 km/h (1 Bft) SW 225 -6,5 C -4,4 C
23.01.2013 22:26 -4,4 C 85 % 1012,1 hPa 0,0 l/m 0,0 km/h (0 Bft) S-SW 202 -6,5 C -4,4 C
23.01.2013 22:31 -4,4 C 85 % 1012,0 hPa 0,0 l/m 0,0 km/h (0 Bft) SW 225 -6,5 C -4,4 C
23.01.2013 22:36 -4,4 C 85 % 1012,1 hPa 0,0 l/m 0,0 km/h (0 Bft) SW 225 -6,5 C -4,4 C
23.01.2013 22:41 -4,4 C 85 % 1012,1 hPa 0,0 l/m 0,0 km/h (0 Bft) SW 225 -6,5 C -4,4 C
23.01.2013 22:46 -4,4 C 85 % 1012,1 hPa 0,0 l/m 0,0 km/h (0 Bft) SW 225 -6,5 C -4,4 C
23.01.2013 22:51 -4,3 C 85 % 1012,2 hPa 0,0 l/m 0,0 km/h (0 Bft) SW 225 -6,4 C -4,3 C
23.01.2013 22:56 -4,3 C 85 % 1012,2 hPa 0,0 l/m 0,0 km/h (0 Bft) SW 225 -6,4 C -4,3 C
23.01.2013 23:01 -4,2 C 85 % 1012,1 hPa 0,0 l/m 0,0 km/h (0 Bft) SW 225 -6,3 C -4,2 C
23.01.2013 23:06 -4,2 C 85 % 1012,2 hPa 0,0 l/m 0,0 km/h (0 Bft) W-SW 247 -6,3 C -4,2 C
23.01.2013 23:11 -4,2 C 85 % 1012,3 hPa 0,0 l/m 0,0 km/h (0 Bft) W-SW 247 -6,3 C -4,2 C
23.01.2013 23:16 -4,2 C 85 % 1012,2 hPa 0,0 l/m 0,0 km/h (0 Bft) SW 225 -6,3 C -4,2 C
23.01.2013 23:21 -4,2 C 85 % 1012,2 hPa 0,0 l/m 0,0 km/h (0 Bft) SW 225 -6,3 C -4,2 C
23.01.2013 23:26 -4,2 C 85 % 1012,3 hPa 0,0 l/m 2,2 km/h (1 Bft) SW 225 -6,3 C -4,2 C
23.01.2013 23:31 -4,2 C 86 % 1012,2 hPa 0,0 l/m 0,0 km/h (0 Bft) S-SW 202 -6,2 C -4,2 C
23.01.2013 23:36 -4,2 C 86 % 1012,2 hPa 0,0 l/m 0,0 km/h (0 Bft) S-SW 202 -6,2 C -4,2 C
23.01.2013 23:41 -4,2 C 86 % 1012,2 hPa 0,0 l/m 0,0 km/h (0 Bft) S-SW 202 -6,2 C -4,2 C
23.01.2013 23:46 -4,2 C 86 % 1012,4 hPa 0,0 l/m 2,5 km/h (1 Bft) S-SW 202 -6,2 C -4,2 C
23.01.2013 23:51 -4,2 C 86 % 1012,3 hPa 0,0 l/m 0,0 km/h (0 Bft) SW 225 -6,2 C -4,2 C
23.01.2013 23:56 -4,2 C 86 % 1012,2 hPa 0,0 l/m 0,0 km/h (0 Bft) SW 225 -6,2 C -4,2 C
_ Min-Zeit 00:51 12:21 05:46 - 00:06 - - 00:01 21:51
Minimum _ -5,9 C 79 % 1010,7 hPa - 0,0 km/h (0 Bft) - - -7,9 C -6,4 C
_ Max-Zeit 13:16 00:51 23:46 00:01 21:51 - - 23:31 13:16
Maximum _ -3,4 C 86 % 1012,4 hPa 0,0 l/m 4,7 km/h
SW (1 Bft)
- - -6,2 C -3,4 C
Durchschnitt _ -4,6 C 84 % 1011,5 hPa #0,0 l/m 0,8 km/h (0 Bft) N-NO - -6,9 C -4,6 C
(c) by David Heller